Back to Top

Language: 

My Weather Underground Personal Weather Station Historical Data with Graphs...

Delerius Weather Station Historical Data
Daily Summary for March 9, 2017 Units:  Metric    English   Both
« Previous Day
Next Day »
Daily Weekly Monthly Yearly Custom
  High: Low: Average:
Temperature: 13.5 °C 4.6 °C 9.3 °C
Dew Point: 7.2 °C 2.7 °C 4.7 °C
Humidity: 90 % 51 % 75 %
Wind Speed: 38.6 km/h 0 km/h 15 km/h
Wind Gust: 51.5 km/h - -
Wind:- - West
Pressure: 1026 hPa 1011.1 hPa -
Precipitation: 0 mm    
Historical Graphs
 
 
Tabular Data for March 9, 2017
Time Temperature Dew Point Pressure Wind Wind Speed Wind Gust Humidity Rainfall Rate (Hourly) solar Conditions
00:05 8.4 °C 5.1 °C 1013.1 hPa WSW 14.5 km/h 35.4 km/h 80 % 0 mm 0 W/m2
00:15 8.3 °C 5.1 °C 1013.1 hPa WSW 14.5 km/h 16.1 km/h 80 % 0 mm 0 W/m2
00:20 8.3 °C 5.1 °C 1013.1 hPa WSW 12.9 km/h 14.5 km/h 80 % 0 mm 0 W/m2
00:25 8.2 °C 5.2 °C 1013.1 hPa WSW 12.9 km/h 14.5 km/h 81 % 0 mm 0 W/m2
00:30 8.2 °C 5.2 °C 1013.1 hPa WSW 12.9 km/h 12.9 km/h 81 % 0 mm 0 W/m2
00:40 8.2 °C 5.1 °C 1012.8 hPa WSW 9.7 km/h 9.7 km/h 81 % 0 mm 0 W/m2
00:45 8.1 °C 5.2 °C 1012.8 hPa SW 9.7 km/h 9.7 km/h 82 % 0 mm 0 W/m2
00:50 8.1 °C 5.2 °C 1012.8 hPa WSW 8 km/h 8 km/h 82 % 0 mm 0 W/m2
00:55 8 °C 5.1 °C 1012.8 hPa SW 9.7 km/h 9.7 km/h 82 % 0 mm 0 W/m2
01:00 7.9 °C 5.2 °C 1012.8 hPa SW 9.7 km/h 12.9 km/h 83 % 0 mm 0 W/m2
01:10 7.9 °C 5.2 °C 1012.8 hPa SW 9.7 km/h 25.7 km/h 83 % 0 mm 0 W/m2
01:15 7.8 °C 5.1 °C 1012.4 hPa SW 9.7 km/h 25.7 km/h 83 % 0 mm 0 W/m2
01:20 7.7 °C 5 °C 1012.4 hPa SW 9.7 km/h 9.7 km/h 83 % 0 mm 0 W/m2
01:25 7.7 °C 5.1 °C 1012.4 hPa SW 9.7 km/h 25.7 km/h 84 % 0 mm 0 W/m2
01:30 7.7 °C 5.3 °C 1012.4 hPa SSW 9.7 km/h 9.7 km/h 85 % 0 mm 0 W/m2
01:35 7.7 °C 5.3 °C 1012.1 hPa SSW 8 km/h 25.7 km/h 85 % 0 mm 0 W/m2
01:45 7.7 °C 5.3 °C 1012.4 hPa SSW 3.2 km/h 25.7 km/h 85 % 0 mm 0 W/m2
01:55 7.5 °C 5.2 °C 1012.1 hPa Calm   25.7 km/h 85 % 0 mm 0 W/m2
02:00 7.5 °C 5.3 °C 1012.1 hPa Calm   25.7 km/h 86 % 0 mm 0 W/m2
02:05 7.4 °C 5.3 °C 1011.7 hPa SSE 1.6 km/h 25.7 km/h 86 % 0 mm 0 W/m2
02:10 7.3 °C 5.1 °C 1012.1 hPa SSE 1.6 km/h 25.7 km/h 86 % 0 mm 0 W/m2
02:20 7.1 °C 5.1 °C 1011.7 hPa ESE 4.8 km/h 25.7 km/h 87 % 0 mm 0 W/m2
02:25 7 °C 5 °C 1011.7 hPa East 4.8 km/h 25.7 km/h 87 % 0 mm 0 W/m2
02:30 6.9 °C 4.9 °C 1011.7 hPa East 3.2 km/h 25.7 km/h 87 % 0 mm 0 W/m2
02:35 6.7 °C 4.7 °C 1011.7 hPa ESE 1.6 km/h 25.7 km/h 87 % 0 mm 0 W/m2
02:40 6.6 °C 4.8 °C 1011.7 hPa Calm   25.7 km/h 88 % 0 mm 0 W/m2
02:50 6.4 °C 4.6 °C 1011.7 hPa WSW 1.6 km/h 25.7 km/h 88 % 0 mm 0 W/m2
02:55 6.5 °C 4.8 °C 1011.7 hPa WSW 4.8 km/h 25.7 km/h 89 % 0 mm 0 W/m2
03:00 6.8 °C 5.3 °C 1011.7 hPa West 9.7 km/h 25.7 km/h 90 % 0 mm 0 W/m2
03:05 7.3 °C 5.6 °C 1011.7 hPa West 11.3 km/h 25.7 km/h 89 % 0 mm 0 W/m2
03:15 7.7 °C 5.8 °C 1011.7 hPa WSW 9.7 km/h 25.7 km/h 88 % 0 mm 0 W/m2
03:20 7.8 °C 5.6 °C 1011.4 hPa WSW 8 km/h 8 km/h 86 % 0 mm 0 W/m2
03:30 7.8 °C 5.6 °C 1011.4 hPa West 9.7 km/h 25.7 km/h 86 % 0 mm 0 W/m2
03:35 7.8 °C 5.6 °C 1011.4 hPa West 8 km/h 25.7 km/h 86 % 0 mm 0 W/m2
03:40 7.7 °C 5.5 °C 1011.4 hPa NNW 4.8 km/h 25.7 km/h 86 % 0 mm 0 W/m2
03:45 7.6 °C 5.6 °C 1011.4 hPa West 4.8 km/h 25.7 km/h 87 % 0 mm 0 W/m2
03:50 7.5 °C 5.5 °C 1011.4 hPa West 4.8 km/h 4.8 km/h 87 % 0 mm 0 W/m2
04:00 7.3 °C 5.4 °C 1011.4 hPa West 3.2 km/h 25.7 km/h 88 % 0 mm 0 W/m2
04:05 7.4 °C 5.7 °C 1011.4 hPa West 8 km/h 25.7 km/h 89 % 0 mm 0 W/m2
04:10 7.6 °C 6.1 °C 1011.4 hPa West 9.7 km/h 9.7 km/h 90 % 0 mm 0 W/m2
04:15 7.7 °C 6 °C 1011.4 hPa WSW 8 km/h 25.7 km/h 89 % 0 mm 0 W/m2
04:20 7.9 °C 6.2 °C 1011.4 hPa WNW 9.7 km/h 25.7 km/h 89 % 0 mm 0 W/m2
04:30 8.2 °C 6.4 °C 1011.4 hPa West 12.9 km/h 12.9 km/h 89 % 0 mm 0 W/m2
04:35 8.2 °C 6.5 °C 1011.1 hPa West 14.5 km/h 32.2 km/h 89 % 0 mm 0 W/m2
04:40 8.3 °C 6.6 °C 1011.1 hPa West 17.7 km/h 25.7 km/h 89 % 0 mm 0 W/m2
04:50 8.5 °C 6.8 °C 1011.1 hPa West 20.9 km/h 37 km/h 89 % 0 mm 0 W/m2
04:55 8.5 °C 6.8 °C 1011.1 hPa WNW 22.5 km/h 37 km/h 89 % 0 mm 0 W/m2
05:05 8.6 °C 6.9 °C 1011.4 hPa WNW 24.1 km/h 40.2 km/h 89 % 0 mm 0 W/m2
05:10 8.7 °C 6.9 °C 1011.4 hPa West 27.4 km/h 27.4 km/h 89 % 0 mm 0 W/m2
05:15 8.7 °C 6.9 °C 1011.7 hPa WNW 27.4 km/h 27.4 km/h 89 % 0 mm 0 W/m2
05:20 8.7 °C 6.9 °C 1011.7 hPa West 25.7 km/h 30.6 km/h 89 % 0 mm 0 W/m2
05:25 8.7 °C 7.1 °C 1012.1 hPa West 24.1 km/h 40.2 km/h 90 % 0 mm 0 W/m2
05:30 8.7 °C 7.1 °C 1012.1 hPa WNW 25.7 km/h 29 km/h 90 % 0 mm 0 W/m2
05:40 8.7 °C 6.9 °C 1012.1 hPa West 24.1 km/h 40.2 km/h 89 % 0 mm 0 W/m2
05:45 8.7 °C 6.9 °C 1012.1 hPa West 24.1 km/h 40.2 km/h 89 % 0 mm 0 W/m2
05:50 8.6 °C 6.9 °C 1012.4 hPa WNW 22.5 km/h 25.7 km/h 89 % 0 mm 0 W/m2
05:55 8.6 °C 7.1 °C 1012.4 hPa WNW 22.5 km/h 25.7 km/h 90 % 0 mm 0 W/m2
06:00 8.6 °C 6.8 °C 1012.4 hPa West 20.9 km/h 29 km/h 89 % 0 mm 0 W/m2
06:10 8.7 °C 6.9 °C 1012.8 hPa West 22.5 km/h 29 km/h 89 % 0 mm 0 W/m2
06:15 8.7 °C 7 °C 1012.8 hPa WNW 22.5 km/h 29 km/h 89 % 0 mm 0 W/m2
06:25 8.7 °C 7 °C 1013.1 hPa West 20.9 km/h 25.7 km/h 89 % 0 mm 0 W/m2
06:30 8.7 °C 7 °C 1013.1 hPa WNW 19.3 km/h 29 km/h 89 % 0 mm 0 W/m2
06:35 8.8 °C 7.1 °C 1013.4 hPa West 20.9 km/h 29 km/h 89 % 0 mm 5 W/m2
06:40 8.8 °C 7.1 °C 1013.4 hPa West 25.7 km/h 33.8 km/h 89 % 0 mm 12 W/m2
06:45 8.9 °C 7.2 °C 1013.4 hPa West 25.7 km/h 33.8 km/h 89 % 0 mm 23 W/m2
06:50 8.9 °C 7.1 °C 1013.4 hPa West 24.1 km/h 24.1 km/h 88 % 0 mm 9 W/m2
06:55 9 °C 7.1 °C 1013.4 hPa WNW 22.5 km/h 30.6 km/h 88 % 0 mm 16 W/m2
07:00 9 °C 6.8 °C 1013.4 hPa WNW 27.4 km/h 29 km/h 86 % 0 mm 18 W/m2
07:05 9 °C 6.8 °C 1013.8 hPa WNW 29 km/h 29 km/h 86 % 0 mm 26 W/m2
07:10 9 °C 6.6 °C 1013.8 hPa WNW 29 km/h 33.8 km/h 85 % 0 mm 56 W/m2
07:20 9.1 °C 6.7 °C 1014.1 hPa West 25.7 km/h 30.6 km/h 85 % 0 mm 88 W/m2
07:25 9.2 °C 6.6 °C 1014.1 hPa WNW 25.7 km/h 40.2 km/h 84 % 0 mm 102 W/m2
07:30 9.2 °C 6.7 °C 1014.1 hPa NW 24.1 km/h 25.7 km/h 84 % 0 mm 113 W/m2
07:35 9.2 °C 6.7 °C 1014.1 hPa WSW 25.7 km/h 25.7 km/h 84 % 0 mm 121 W/m2
07:40 9.3 °C 6.6 °C 1014.4 hPa WNW 25.7 km/h 25.7 km/h 83 % 0 mm 137 W/m2
07:50 9.5 °C 6.8 °C 1014.8 hPa WNW 27.4 km/h 27.4 km/h 83 % 0 mm 214 W/m2
08:00 9.4 °C 5.9 °C 1014.8 hPa West 29 km/h 40.2 km/h 79 % 0 mm 141 W/m2
08:05 9.3 °C 5.7 °C 1014.8 hPa NNW 30.6 km/h 40.2 km/h 78 % 0 mm 206 W/m2
08:10 9.4 °C 5.7 °C 1014.8 hPa West 29 km/h 29 km/h 78 % 0 mm 216 W/m2
08:15 9.4 °C 5.8 °C 1014.8 hPa West 27.4 km/h 29 km/h 78 % 0 mm 230 W/m2
08:25 9.6 °C 5.8 °C 1015.1 hPa WNW 27.4 km/h 29 km/h 77 % 0 mm 257 W/m2
08:30 9.6 °C 5.6 °C 1015.1 hPa WNW 25.7 km/h 25.7 km/h 76 % 0 mm 267 W/m2
08:35 9.7 °C 5.5 °C 1015.1 hPa WNW 29 km/h 38.6 km/h 75 % 0 mm 281 W/m2
08:40 9.7 °C 5.1 °C 1015.1 hPa West 30.6 km/h 32.2 km/h 73 % 0 mm 297 W/m2
08:45 9.8 °C 5.2 °C 1015.1 hPa West 32.2 km/h 32.2 km/h 73 % 0 mm 309 W/m2
08:50 9.8 °C 5 °C 1015.1 hPa West 33.8 km/h 33.8 km/h 72 % 0 mm 325 W/m2
09:00 10 °C 5.4 °C 1015.1 hPa West 33.8 km/h 33.8 km/h 73 % 0 mm 348 W/m2
09:05 10.1 °C 5.4 °C 1015.1 hPa West 33.8 km/h 33.8 km/h 73 % 0 mm 355 W/m2
09:10 10.1 °C 5.5 °C 1015.1 hPa West 33.8 km/h 33.8 km/h 73 % 0 mm 369 W/m2
09:20 10.2 °C 5.4 °C 1015.5 hPa WSW 37 km/h 51.5 km/h 72 % 0 mm 406 W/m2
09:25 10.2 °C 5.4 °C 1015.5 hPa WNW 37 km/h 51.5 km/h 72 % 0 mm 415 W/m2
09:35 10.3 °C 5.1 °C 1015.5 hPa West 35.4 km/h 35.4 km/h 70 % 0 mm 427 W/m2
09:40 10.3 °C 5.1 °C 1015.8 hPa NW 37 km/h 45.1 km/h 70 % 0 mm 438 W/m2
09:45 10.4 °C 4.9 °C 1015.8 hPa WNW 37 km/h 45.1 km/h 69 % 0 mm 441 W/m2
09:50 10.5 °C 5.1 °C 1015.8 hPa West 35.4 km/h 37 km/h 69 % 0 mm 459 W/m2
09:55 10.6 °C 5.1 °C 1015.8 hPa West 35.4 km/h 46.7 km/h 69 % 0 mm 466 W/m2
10:05 10.6 °C 5.1 °C 1015.8 hPa West 38.6 km/h 43.5 km/h 69 % 0 mm 489 W/m2
10:10 10.6 °C 5.1 °C 1016.1 hPa WSW 38.6 km/h 46.7 km/h 69 % 0 mm 494 W/m2
10:15 10.6 °C 5.2 °C 1016.1 hPa WNW 37 km/h 46.7 km/h 69 % 0 mm 494 W/m2
10:20 10.7 °C 5.2 °C 1016.1 hPa WNW 37 km/h 37 km/h 69 % 0 mm 512 W/m2
10:25 10.8 °C 5.3 °C 1016.1 hPa NW 37 km/h 37 km/h 69 % 0 mm 513 W/m2
10:35 10.9 °C 5.3 °C 1016.5 hPa WNW 33.8 km/h 35.4 km/h 68 % 0 mm 494 W/m2
10:40 10.9 °C 5.2 °C 1016.5 hPa WNW 35.4 km/h 35.4 km/h 68 % 0 mm 513 W/m2
10:50 10.8 °C 5.2 °C 1016.8 hPa NW 30.6 km/h 30.6 km/h 68 % 0 mm 512 W/m2
10:55 10.9 °C 5.1 °C 1017.2 hPa West 29 km/h 30.6 km/h 67 % 0 mm 555 W/m2
11:00 11.2 °C 5.3 °C 1017.5 hPa WNW 29 km/h 29 km/h 67 % 0 mm 564 W/m2
11:05 11.2 °C 5.1 °C 1017.5 hPa WNW 30.6 km/h 32.2 km/h 66 % 0 mm 566 W/m2
11:15 11.2 °C 4.9 °C 1017.8 hPa WNW 33.8 km/h 40.2 km/h 65 % 0 mm 573 W/m2
11:20 11.3 °C 5.2 °C 1017.8 hPa WNW 33.8 km/h 33.8 km/h 66 % 0 mm 570 W/m2
11:25 11.3 °C 5 °C 1017.8 hPa WNW 33.8 km/h 33.8 km/h 65 % 0 mm 596 W/m2
11:30 11.4 °C 5.3 °C 1018.2 hPa NW 35.4 km/h 35.4 km/h 66 % 0 mm 582 W/m2
11:35 11.7 °C 5.5 °C 1018.5 hPa West 30.6 km/h 35.4 km/h 66 % 0 mm 613 W/m2
11:45 11.8 °C 5.4 °C 1018.5 hPa WSW 32.2 km/h 32.2 km/h 65 % 0 mm 594 W/m2
11:50 11.8 °C 5.2 °C 1018.8 hPa WNW 29 km/h 32.2 km/h 64 % 0 mm 613 W/m2
11:55 12 °C 5.6 °C 1018.8 hPa WSW 24.1 km/h 32.2 km/h 65 % 0 mm 612 W/m2
12:00 12.1 °C 5.5 °C 1018.8 hPa WNW 24.1 km/h 24.1 km/h 64 % 0 mm 540 W/m2
12:10 12.2 °C 5.1 °C 1018.8 hPa WNW 29 km/h 29 km/h 62 % 0 mm 550 W/m2
12:15 12.3 °C 5.7 °C 1019.2 hPa West 27.4 km/h 30.6 km/h 64 % 0 mm 552 W/m2
12:25 12.3 °C 5.2 °C 1019.2 hPa West 27.4 km/h 27.4 km/h 62 % 0 mm 599 W/m2
12:30 12.4 °C 5.3 °C 1019.2 hPa WNW 25.7 km/h 25.7 km/h 62 % 0 mm 591 W/m2
12:35 12.4 °C 5.3 °C 1019.2 hPa NW 24.1 km/h 25.7 km/h 62 % 0 mm 596 W/m2
12:40 12.6 °C 5.4 °C 1019.2 hPa WNW 24.1 km/h 33.8 km/h 62 % 0 mm 594 W/m2
12:45 12.7 °C 5.3 °C 1019.5 hPa WNW 22.5 km/h 33.8 km/h 61 % 0 mm 591 W/m2
12:50 12.8 °C 5.2 °C 1019.2 hPa West 20.9 km/h 25.7 km/h 60 % 0 mm 587 W/m2
12:55 12.7 °C 4.4 °C 1019.2 hPa NW 22.5 km/h 25.7 km/h 57 % 0 mm 589 W/m2
13:00 12.7 °C 4.4 °C 1019.2 hPa NW 24.1 km/h 24.1 km/h 57 % 0 mm 585 W/m2
13:05 12.8 °C 4.3 °C 1019.5 hPa WNW 22.5 km/h 25.7 km/h 56 % 0 mm 582 W/m2
13:10 12.9 °C 4.3 °C 1019.9 hPa NW 20.9 km/h 20.9 km/h 56 % 0 mm 577 W/m2
13:15 13 °C 4.4 °C 1019.9 hPa WNW 20.9 km/h 25.7 km/h 56 % 0 mm 568 W/m2
13:25 13.3 °C 4.4 °C 1019.9 hPa WNW 14.5 km/h 29 km/h 55 % 0 mm 561 W/m2
13:35 13.4 °C 4.3 °C 1019.9 hPa WNW 20.9 km/h 25.7 km/h 54 % 0 mm 550 W/m2
13:40 13.2 °C 3.8 °C 1019.9 hPa WNW 22.5 km/h 25.7 km/h 53 % 0 mm 548 W/m2
13:45 13.2 °C 3.6 °C 1019.9 hPa WNW 22.5 km/h 25.7 km/h 52 % 0 mm 541 W/m2
13:50 13.2 °C 4.1 °C 1020.2 hPa NNW 19.3 km/h 19.3 km/h 54 % 0 mm 533 W/m2
14:00 13.3 °C 3.9 °C 1020.5 hPa WNW 14.5 km/h 14.5 km/h 53 % 0 mm 517 W/m2
14:05 13.4 °C 4 °C 1020.5 hPa NW 14.5 km/h 25.7 km/h 53 % 0 mm 506 W/m2
14:10 13.4 °C 3.8 °C 1020.5 hPa WNW 16.1 km/h 16.1 km/h 52 % 0 mm 499 W/m2
14:15 13.4 °C 3.8 °C 1020.5 hPa WNW 16.1 km/h 25.7 km/h 52 % 0 mm 490 W/m2
14:20 13.5 °C 3.6 °C 1020.5 hPa WNW 16.1 km/h 25.7 km/h 51 % 0 mm 482 W/m2
14:25 13.4 °C 3.4 °C 1020.5 hPa WNW 17.7 km/h 25.7 km/h 51 % 0 mm 473 W/m2
14:30 13.4 °C 3.7 °C 1020.5 hPa WNW 17.7 km/h 17.7 km/h 52 % 0 mm 466 W/m2
14:40 13.3 °C 3.4 °C 1020.9 hPa NW 16.1 km/h 25.7 km/h 51 % 0 mm 448 W/m2
14:45 13.4 °C 3.4 °C 1020.9 hPa NW 14.5 km/h 25.7 km/h 51 % 0 mm 438 W/m2
14:50 13.4 °C 3.4 °C 1020.9 hPa WNW 16.1 km/h 25.7 km/h 51 % 0 mm 432 W/m2
14:55 13.4 °C 3.7 °C 1020.9 hPa West 17.7 km/h 25.7 km/h 52 % 0 mm 427 W/m2
15:00 13.3 °C 3.4 °C 1020.9 hPa NW 16.1 km/h 16.1 km/h 51 % 0 mm 176 W/m2
15:10 13 °C 3.1 °C 1021.2 hPa WNW 14.5 km/h 25.7 km/h 51 % 0 mm 381 W/m2
15:15 13.2 °C 3.5 °C 1020.9 hPa WNW 11.3 km/h 25.7 km/h 52 % 0 mm 373 W/m2
15:20 13.3 °C 3.3 °C 1021.2 hPa WNW 12.9 km/h 25.7 km/h 51 % 0 mm 364 W/m2
15:25 13.3 °C 3.4 °C 1021.6 hPa WNW 14.5 km/h 25.7 km/h 51 % 0 mm 343 W/m2
15:30 13.3 °C 3.4 °C 1021.6 hPa West 12.9 km/h 12.9 km/h 51 % 0 mm 339 W/m2
15:40 13.3 °C 3.4 °C 1021.6 hPa West 12.9 km/h 25.7 km/h 51 % 0 mm 309 W/m2
15:45 13.3 °C 3.3 °C 1021.6 hPa West 12.9 km/h 25.7 km/h 51 % 0 mm 295 W/m2
15:55 13.1 °C 3.7 °C 1021.6 hPa West 17.7 km/h 25.7 km/h 53 % 0 mm 271 W/m2
16:00 12.9 °C 3.8 °C 1021.6 hPa WNW 16.1 km/h 25.7 km/h 54 % 0 mm 258 W/m2
16:05 12.6 °C 3.6 °C 1021.9 hPa West 14.5 km/h 25.7 km/h 54 % 0 mm 246 W/m2
16:15 12.3 °C 3.8 °C 1021.9 hPa West 12.9 km/h 17.7 km/h 56 % 0 mm 220 W/m2
16:20 12.1 °C 3.6 °C 1021.9 hPa West 14.5 km/h 25.7 km/h 56 % 0 mm 207 W/m2
16:25 12 °C 3.5 °C 1021.9 hPa WNW 14.5 km/h 25.7 km/h 56 % 0 mm 195 W/m2
16:30 11.9 °C 3.6 °C 1022.2 hPa WSW 12.9 km/h 12.9 km/h 57 % 0 mm 176 W/m2
16:35 11.8 °C 3.6 °C 1022.2 hPa West 12.9 km/h 25.7 km/h 57 % 0 mm 167 W/m2
16:40 11.7 °C 3.7 °C 1022.2 hPa WNW 14.5 km/h 25.7 km/h 58 % 0 mm 155 W/m2
16:50 11.5 °C 3.5 °C 1022.2 hPa WNW 14.5 km/h 14.5 km/h 58 % 0 mm 114 W/m2
16:55 11.4 °C 3.4 °C 1022.6 hPa West 11.3 km/h 25.7 km/h 58 % 0 mm 81 W/m2
17:05 11.2 °C 3.7 °C 1022.6 hPa WNW 14.5 km/h 25.7 km/h 60 % 0 mm 30 W/m2
17:10 11 °C 3.5 °C 1022.6 hPa West 14.5 km/h 25.7 km/h 60 % 0 mm 26 W/m2
17:15 10.8 °C 3.6 °C 1022.9 hPa West 12.9 km/h 25.7 km/h 61 % 0 mm 16 W/m2
17:25 10.6 °C 3.6 °C 1023.2 hPa WNW 11.3 km/h 25.7 km/h 62 % 0 mm 14 W/m2
17:30 10.3 °C 3.6 °C 1022.9 hPa WNW 11.3 km/h 11.3 km/h 63 % 0 mm 11 W/m2
17:35 10.1 °C 3.4 °C 1023.2 hPa WNW 8 km/h 25.7 km/h 63 % 0 mm 11 W/m2
17:40 9.9 °C 3.4 °C 1023.2 hPa WNW 8 km/h 25.7 km/h 64 % 0 mm 9 W/m2
17:45 9.8 °C 3.5 °C 1023.6 hPa WSW 8 km/h 25.7 km/h 65 % 0 mm 7 W/m2
17:55 9.5 °C 3.4 °C 1023.2 hPa West 3.2 km/h 8 km/h 66 % 0 mm 0 W/m2
18:00 9.3 °C 3.5 °C 1023.2 hPa WNW 4.8 km/h 25.7 km/h 67 % 0 mm 0 W/m2
18:05 9.1 °C 3.5 °C 1023.2 hPa WNW 6.4 km/h 25.7 km/h 68 % 0 mm 0 W/m2
18:15 8.8 °C 3.4 °C 1023.2 hPa WNW 4.8 km/h 8 km/h 69 % 0 mm 0 W/m2
18:20 8.6 °C 3.4 °C 1023.2 hPa WNW 4.8 km/h 25.7 km/h 70 % 0 mm 0 W/m2
18:30 8.3 °C 3.4 °C 1023.2 hPa WNW 6.4 km/h 6.4 km/h 71 % 0 mm 0 W/m2
18:40 8.1 °C 3.4 °C 1023.6 hPa West 6.4 km/h 25.7 km/h 72 % 0 mm 0 W/m2
18:45 8 °C 3.3 °C 1023.6 hPa West 4.8 km/h 25.7 km/h 72 % 0 mm 0 W/m2
18:50 7.9 °C 3.3 °C 1023.9 hPa West 3.2 km/h 3.2 km/h 73 % 0 mm 0 W/m2
18:55 7.8 °C 3.2 °C 1023.9 hPa West 3.2 km/h 25.7 km/h 73 % 0 mm 0 W/m2
19:00 7.7 °C 3.2 °C 1023.9 hPa West 3.2 km/h 25.7 km/h 73 % 0 mm 0 W/m2
19:05 7.7 °C 3.3 °C 1023.9 hPa West 1.6 km/h 25.7 km/h 74 % 0 mm 0 W/m2
19:10 7.6 °C 3.3 °C 1023.9 hPa West 1.6 km/h 25.7 km/h 74 % 0 mm 0 W/m2
19:15 7.5 °C 3.3 °C 1023.9 hPa WSW 1.6 km/h 25.7 km/h 75 % 0 mm 0 W/m2
19:20 7.4 °C 3.3 °C 1023.6 hPa West 3.2 km/h 25.7 km/h 75 % 0 mm 0 W/m2
19:25 7.4 °C 3.2 °C 1024.3 hPa West 1.6 km/h 25.7 km/h 75 % 0 mm 0 W/m2
19:30 7.3 °C 3.2 °C 1024.3 hPa West 1.6 km/h 25.7 km/h 75 % 0 mm 0 W/m2
19:35 7.2 °C 3.1 °C 1024.3 hPa West 3.2 km/h 25.7 km/h 75 % 0 mm 0 W/m2
19:40 7.2 °C 3.3 °C 1024.3 hPa WNW 4.8 km/h 25.7 km/h 76 % 0 mm 0 W/m2
19:50 7.2 °C 3.4 °C 1024.6 hPa WNW 1.6 km/h 1.6 km/h 77 % 0 mm 0 W/m2
19:55 7.1 °C 3.3 °C 1024.6 hPa Calm   25.7 km/h 77 % 0 mm 0 W/m2
20:00 7 °C 3.2 °C 1024.6 hPa WNW 1.6 km/h 25.7 km/h 77 % 0 mm 0 W/m2
20:10 6.9 °C 3.3 °C 1024.6 hPa Calm   25.7 km/h 78 % 0 mm 0 W/m2
20:15 6.8 °C 3.4 °C 1024.6 hPa Calm   25.7 km/h 79 % 0 mm 0 W/m2
20:20 6.8 °C 3.4 °C 1024.6 hPa Calm   25.7 km/h 79 % 0 mm 0 W/m2
20:25 6.8 °C 3.4 °C 1024.6 hPa Calm   25.7 km/h 79 % 0 mm 0 W/m2
20:30 6.7 °C 3.5 °C 1024.6 hPa Calm   25.7 km/h 80 % 0 mm 0 W/m2
20:35 6.7 °C 3.3 °C 1024.6 hPa Calm   25.7 km/h 79 % 0 mm 0 W/m2
20:45 6.7 °C 3.4 °C 1024.6 hPa WNW 3.2 km/h 25.7 km/h 80 % 0 mm 0 W/m2
20:50 6.7 °C 3.5 °C 1024.9 hPa WNW 1.6 km/h 1.6 km/h 80 % 0 mm 0 W/m2
20:55 6.7 °C 3.6 °C 1024.9 hPa Calm   25.7 km/h 81 % 0 mm 0 W/m2
21:05 6.7 °C 3.6 °C 1024.9 hPa Calm   25.7 km/h 81 % 0 mm 0 W/m2
21:10 6.6 °C 3.5 °C 1025.3 hPa Calm   25.7 km/h 81 % 0 mm 0 W/m2
21:20 6.5 °C 3.7 °C 1024.9 hPa Calm   25.7 km/h 82 % 0 mm 0 W/m2
21:25 6.4 °C 3.6 °C 1025.3 hPa Calm   25.7 km/h 82 % 0 mm 0 W/m2
21:30 6.3 °C 3.7 °C 1024.9 hPa WNW 1.6 km/h 25.7 km/h 83 % 0 mm 0 W/m2
21:35 6.3 °C 3.7 °C 1024.9 hPa WNW 1.6 km/h 25.7 km/h 83 % 0 mm 0 W/m2
21:40 6.3 °C 3.7 °C 1024.9 hPa WNW 1.6 km/h 1.6 km/h 83 % 0 mm 0 W/m2
21:55 6.2 °C 3.6 °C 1024.9 hPa Calm   25.7 km/h 83 % 0 mm 0 W/m2
22:00 6.2 °C 3.7 °C 1024.9 hPa Calm   25.7 km/h 84 % 0 mm 0 W/m2
22:05 6.1 °C 3.6 °C 1024.9 hPa Calm   25.7 km/h 84 % 0 mm 0 W/m2
22:10 6.1 °C 3.6 °C 1024.9 hPa Calm   25.7 km/h 84 % 0 mm 0 W/m2
22:15 6.1 °C 3.6 °C 1024.9 hPa Calm   25.7 km/h 84 % 0 mm 0 W/m2
22:25 5.9 °C 3.4 °C 1024.9 hPa Calm   25.7 km/h 84 % 0 mm 0 W/m2
22:35 5.9 °C 3.6 °C 1025.3 hPa Calm   25.7 km/h 85 % 0 mm 0 W/m2
22:40 5.8 °C 3.4 °C 1025.3 hPa Calm   25.7 km/h 85 % 0 mm 0 W/m2
22:45 5.7 °C 3.6 °C 1025.3 hPa Calm   25.7 km/h 86 % 0 mm 0 W/m2
22:50 5.6 °C 3.3 °C 1025.3 hPa Calm   25.7 km/h 85 % 0 mm 0 W/m2
23:00 5.4 °C 3.2 °C 1025.3 hPa Calm   25.7 km/h 86 % 0 mm 0 W/m2
23:05 5.3 °C 3.1 °C 1025.6 hPa Calm   25.7 km/h 86 % 0 mm 0 W/m2
23:10 5.3 °C 3.3 °C 1025.6 hPa Calm   25.7 km/h 87 % 0 mm 0 W/m2
23:15 5.2 °C 3.2 °C 1025.6 hPa Calm   25.7 km/h 87 % 0 mm 0 W/m2
23:20 5.2 °C 3.2 °C 1025.6 hPa Calm   25.7 km/h 87 % 0 mm 0 W/m2
23:30 4.9 °C 2.9 °C 1025.6 hPa Calm   25.7 km/h 87 % 0 mm 0 W/m2
23:35 4.8 °C 2.8 °C 1025.6 hPa Calm   25.7 km/h 87 % 0 mm 0 W/m2
23:40 4.7 °C 2.9 °C 1026 hPa Calm   25.7 km/h 88 % 0 mm 0 W/m2
23:50 4.6 °C 2.7 °C 1026 hPa Calm   25.7 km/h 88 % 0 mm 0 W/m2
23:55 4.6 °C 2.9 °C 1026 hPa Calm   25.7 km/h 89 % 0 mm 0 W/m2
Delerius-Weather
Compliments of Weather Underground - 2 mb

Data updates at regular intervals.